sensor_id;sensor_type;location;lat;lon;timestamp;temperature;humidity
30063;DHT22;16889;67.864;24.990;2023-03-14T00:00:00;-6.50;99.90
30063;DHT22;16889;67.864;24.990;2023-03-14T00:04:45;-6.50;99.90
30063;DHT22;16889;67.864;24.990;2023-03-14T00:09:31;-6.60;99.90
30063;DHT22;16889;67.864;24.990;2023-03-14T00:14:17;-6.60;99.90
30063;DHT22;16889;67.864;24.990;2023-03-14T00:19:03;-6.50;99.90
30063;DHT22;16889;67.864;24.990;2023-03-14T00:23:49;-6.40;99.90
30063;DHT22;16889;67.864;24.990;2023-03-14T00:28:36;-6.50;99.90
30063;DHT22;16889;67.864;24.990;2023-03-14T00:33:22;-6.50;99.90
30063;DHT22;16889;67.864;24.990;2023-03-14T00:38:08;-6.50;99.90
30063;DHT22;16889;67.864;24.990;2023-03-14T00:42:54;-6.50;99.90
30063;DHT22;16889;67.864;24.990;2023-03-14T00:47:40;-6.60;99.90
30063;DHT22;16889;67.864;24.990;2023-03-14T00:52:31;-6.60;99.90
30063;DHT22;16889;67.864;24.990;2023-03-14T00:57:16;-6.50;99.90
30063;DHT22;16889;67.864;24.990;2023-03-14T01:02:02;-6.50;99.90
30063;DHT22;16889;67.864;24.990;2023-03-14T01:06:48;-6.20;99.90
30063;DHT22;16889;67.864;24.990;2023-03-14T01:11:35;-6.20;99.90
30063;DHT22;16889;67.864;24.990;2023-03-14T01:16:24;-6.30;99.90
30063;DHT22;16889;67.864;24.990;2023-03-14T01:21:14;-6.20;99.90
30063;DHT22;16889;67.864;24.990;2023-03-14T01:26:00;-6.20;99.90
30063;DHT22;16889;67.864;24.990;2023-03-14T01:30:46;-6.10;99.90
30063;DHT22;16889;67.864;24.990;2023-03-14T01:35:32;-6.10;99.90
30063;DHT22;16889;67.864;24.990;2023-03-14T01:40:18;-6.10;99.90
30063;DHT22;16889;67.864;24.990;2023-03-14T01:45:04;-6.10;99.90
30063;DHT22;16889;67.864;24.990;2023-03-14T01:50:01;-6.20;99.90
30063;DHT22;16889;67.864;24.990;2023-03-14T01:54:52;-6.20;99.90
30063;DHT22;16889;67.864;24.990;2023-03-14T01:59:45;-6.30;99.90
30063;DHT22;16889;67.864;24.990;2023-03-14T02:04:33;-6.30;99.90
30063;DHT22;16889;67.864;24.990;2023-03-14T02:09:20;-6.40;99.90
30063;DHT22;16889;67.864;24.990;2023-03-14T02:14:08;-6.50;99.90
30063;DHT22;16889;67.864;24.990;2023-03-14T02:19:00;-6.60;99.90
30063;DHT22;16889;67.864;24.990;2023-03-14T02:29:00;-6.60;99.90
30063;DHT22;16889;67.864;24.990;2023-03-14T02:33:46;-6.70;99.90
30063;DHT22;16889;67.864;24.990;2023-03-14T02:38:37;-6.70;99.90
30063;DHT22;16889;67.864;24.990;2023-03-14T02:43:26;-6.80;99.90
30063;DHT22;16889;67.864;24.990;2023-03-14T02:48:18;-6.80;99.90
30063;DHT22;16889;67.864;24.990;2023-03-14T02:53:04;-6.90;99.90
30063;DHT22;16889;67.864;24.990;2023-03-14T02:57:50;-6.90;99.90
30063;DHT22;16889;67.864;24.990;2023-03-14T03:02:36;-6.90;99.90
30063;DHT22;16889;67.864;24.990;2023-03-14T03:07:22;-6.90;99.90
30063;DHT22;16889;67.864;24.990;2023-03-14T03:12:08;-6.90;99.90
30063;DHT22;16889;67.864;24.990;2023-03-14T03:16:54;-7.10;99.90
30063;DHT22;16889;67.864;24.990;2023-03-14T03:21:40;-7.20;99.90
30063;DHT22;16889;67.864;24.990;2023-03-14T03:26:26;-7.30;99.90
30063;DHT22;16889;67.864;24.990;2023-03-14T03:31:12;-7.20;99.90
30063;DHT22;16889;67.864;24.990;2023-03-14T03:35:58;-7.20;99.90
30063;DHT22;16889;67.864;24.990;2023-03-14T03:40:44;-7.20;99.90
30063;DHT22;16889;67.864;24.990;2023-03-14T03:45:30;-7.30;99.90
30063;DHT22;16889;67.864;24.990;2023-03-14T03:50:16;-7.30;99.90
30063;DHT22;16889;67.864;24.990;2023-03-14T03:55:02;-7.30;99.90
30063;DHT22;16889;67.864;24.990;2023-03-14T03:59:48;-7.40;99.90
30063;DHT22;16889;67.864;24.990;2023-03-14T04:04:34;-7.40;99.90
30063;DHT22;16889;67.864;24.990;2023-03-14T04:09:20;-7.50;99.90
30063;DHT22;16889;67.864;24.990;2023-03-14T04:14:06;-7.40;99.90
30063;DHT22;16889;67.864;24.990;2023-03-14T04:18:53;-7.40;99.90
30063;DHT22;16889;67.864;24.990;2023-03-14T04:23:39;-7.50;99.90
30063;DHT22;16889;67.864;24.990;2023-03-14T04:28:25;-7.60;99.90
30063;DHT22;16889;67.864;24.990;2023-03-14T04:33:11;-7.60;99.90
30063;DHT22;16889;67.864;24.990;2023-03-14T04:38:08;-7.50;99.90
30063;DHT22;16889;67.864;24.990;2023-03-14T04:42:54;-7.50;99.90
30063;DHT22;16889;67.864;24.990;2023-03-14T04:47:40;-7.50;99.90
30063;DHT22;16889;67.864;24.990;2023-03-14T04:52:27;-7.50;99.90
30063;DHT22;16889;67.864;24.990;2023-03-14T04:57:13;-7.50;99.90
30063;DHT22;16889;67.864;24.990;2023-03-14T05:01:59;-7.60;99.90
30063;DHT22;16889;67.864;24.990;2023-03-14T05:06:45;-7.50;99.90
30063;DHT22;16889;67.864;24.990;2023-03-14T05:11:31;-7.50;99.90
30063;DHT22;16889;67.864;24.990;2023-03-14T05:16:18;-7.50;99.90
30063;DHT22;16889;67.864;24.990;2023-03-14T05:21:04;-7.60;99.90
30063;DHT22;16889;67.864;24.990;2023-03-14T05:25:50;-7.60;99.90
30063;DHT22;16889;67.864;24.990;2023-03-14T05:30:36;-7.50;99.90
30063;DHT22;16889;67.864;24.990;2023-03-14T05:35:22;-7.50;99.90
30063;DHT22;16889;67.864;24.990;2023-03-14T05:40:09;-7.50;99.90
30063;DHT22;16889;67.864;24.990;2023-03-14T05:44:55;-7.50;99.90
30063;DHT22;16889;67.864;24.990;2023-03-14T05:49:41;-7.40;99.90
30063;DHT22;16889;67.864;24.990;2023-03-14T05:54:27;-7.40;99.90
30063;DHT22;16889;67.864;24.990;2023-03-14T05:59:13;-7.40;99.90
30063;DHT22;16889;67.864;24.990;2023-03-14T06:04:00;-7.40;99.90
30063;DHT22;16889;67.864;24.990;2023-03-14T06:08:46;-7.40;99.90
30063;DHT22;16889;67.864;24.990;2023-03-14T06:13:32;-7.40;99.90
30063;DHT22;16889;67.864;24.990;2023-03-14T06:18:18;-7.40;99.90
30063;DHT22;16889;67.864;24.990;2023-03-14T06:23:04;-7.40;99.90
30063;DHT22;16889;67.864;24.990;2023-03-14T06:27:51;-7.30;99.90
30063;DHT22;16889;67.864;24.990;2023-03-14T06:32:37;-7.20;99.90
30063;DHT22;16889;67.864;24.990;2023-03-14T06:37:23;-7.20;99.90
30063;DHT22;16889;67.864;24.990;2023-03-14T06:42:09;-7.20;99.90
30063;DHT22;16889;67.864;24.990;2023-03-14T06:46:55;-7.20;99.90
30063;DHT22;16889;67.864;24.990;2023-03-14T06:51:41;-7.10;99.90
30063;DHT22;16889;67.864;24.990;2023-03-14T06:56:27;-7.10;99.90
30063;DHT22;16889;67.864;24.990;2023-03-14T07:01:39;-7.10;99.90
30063;DHT22;16889;67.864;24.990;2023-03-14T07:06:25;-7.10;99.90
30063;DHT22;16889;67.864;24.990;2023-03-14T07:11:12;-7.00;99.90
30063;DHT22;16889;67.864;24.990;2023-03-14T07:15:58;-7.00;99.90
30063;DHT22;16889;67.864;24.990;2023-03-14T07:20:45;-7.10;99.90
30063;DHT22;16889;67.864;24.990;2023-03-14T07:25:31;-7.10;99.90
30063;DHT22;16889;67.864;24.990;2023-03-14T07:30:17;-7.00;99.90
30063;DHT22;16889;67.864;24.990;2023-03-14T07:35:04;-7.00;99.90
30063;DHT22;16889;67.864;24.990;2023-03-14T07:39:50;-7.00;99.90
30063;DHT22;16889;67.864;24.990;2023-03-14T07:44:36;-6.90;99.90
30063;DHT22;16889;67.864;24.990;2023-03-14T07:49:22;-6.90;99.90
30063;DHT22;16889;67.864;24.990;2023-03-14T07:54:08;-6.80;99.90
30063;DHT22;16889;67.864;24.990;2023-03-14T07:58:56;-6.70;99.90
30063;DHT22;16889;67.864;24.990;2023-03-14T08:03:42;-6.80;99.90
30063;DHT22;16889;67.864;24.990;2023-03-14T08:08:28;-6.60;99.90
30063;DHT22;16889;67.864;24.990;2023-03-14T08:13:14;-6.50;99.90
30063;DHT22;16889;67.864;24.990;2023-03-14T08:18:00;-6.50;99.90
30063;DHT22;16889;67.864;24.990;2023-03-14T08:22:46;-6.50;99.90
30063;DHT22;16889;67.864;24.990;2023-03-14T08:27:33;-6.40;99.90
30063;DHT22;16889;67.864;24.990;2023-03-14T08:32:19;-6.40;99.90
30063;DHT22;16889;67.864;24.990;2023-03-14T08:37:09;-6.30;99.90
30063;DHT22;16889;67.864;24.990;2023-03-14T08:41:55;-6.20;99.90
30063;DHT22;16889;67.864;24.990;2023-03-14T08:46:41;-6.10;99.90
30063;DHT22;16889;67.864;24.990;2023-03-14T08:51:27;-6.00;99.90
30063;DHT22;16889;67.864;24.990;2023-03-14T08:56:22;-6.00;99.90
30063;DHT22;16889;67.864;24.990;2023-03-14T09:01:10;-6.10;99.90
30063;DHT22;16889;67.864;24.990;2023-03-14T09:06:02;-6.20;99.90
30063;DHT22;16889;67.864;24.990;2023-03-14T09:10:49;-6.20;99.90
30063;DHT22;16889;67.864;24.990;2023-03-14T09:15:35;-6.30;99.90
30063;DHT22;16889;67.864;24.990;2023-03-14T09:20:21;-6.20;99.90
30063;DHT22;16889;67.864;24.990;2023-03-14T09:25:07;-6.30;99.90
30063;DHT22;16889;67.864;24.990;2023-03-14T09:29:53;-6.20;99.90
30063;DHT22;16889;67.864;24.990;2023-03-14T09:34:39;-6.20;99.90
30063;DHT22;16889;67.864;24.990;2023-03-14T09:39:25;-6.10;99.90
30063;DHT22;16889;67.864;24.990;2023-03-14T09:44:51;-6.10;99.90
30063;DHT22;16889;67.864;24.990;2023-03-14T09:49:42;-6.10;99.90
30063;DHT22;16889;67.864;24.990;2023-03-14T09:54:42;-6.00;99.90
30063;DHT22;16889;67.864;24.990;2023-03-14T09:59:29;-5.90;99.90
30063;DHT22;16889;67.864;24.990;2023-03-14T10:04:21;-5.90;99.90
30063;DHT22;16889;67.864;24.990;2023-03-14T10:09:22;-5.80;99.90
30063;DHT22;16889;67.864;24.990;2023-03-14T10:14:11;-5.70;99.90
30063;DHT22;16889;67.864;24.990;2023-03-14T10:19:05;-5.60;99.90
30063;DHT22;16889;67.864;24.990;2023-03-14T10:23:51;-5.60;99.90
30063;DHT22;16889;67.864;24.990;2023-03-14T10:28:46;-5.50;99.90
30063;DHT22;16889;67.864;24.990;2023-03-14T10:33:34;-5.50;99.90
30063;DHT22;16889;67.864;24.990;2023-03-14T10:38:27;-5.40;99.90
30063;DHT22;16889;67.864;24.990;2023-03-14T10:43:16;-5.40;99.90
30063;DHT22;16889;67.864;24.990;2023-03-14T10:53:07;-5.30;99.90
30063;DHT22;16889;67.864;24.990;2023-03-14T10:57:58;-5.20;99.90
30063;DHT22;16889;67.864;24.990;2023-03-14T11:03:12;-5.00;99.90
30063;DHT22;16889;67.864;24.990;2023-03-14T11:08:23;-4.80;99.90
30063;DHT22;16889;67.864;24.990;2023-03-14T11:13:35;-4.90;99.90
30063;DHT22;16889;67.864;24.990;2023-03-14T11:18:56;-4.90;99.90
30063;DHT22;16889;67.864;24.990;2023-03-14T11:30:03;-4.70;99.90
30063;DHT22;16889;67.864;24.990;2023-03-14T11:34:57;-4.60;99.90
30063;DHT22;16889;67.864;24.990;2023-03-14T11:39:58;-4.50;99.90
30063;DHT22;16889;67.864;24.990;2023-03-14T11:44:49;-4.50;99.90
30063;DHT22;16889;67.864;24.990;2023-03-14T11:49:45;-4.50;99.90
30063;DHT22;16889;67.864;24.990;2023-03-14T12:10:03;-4.60;99.90
30063;DHT22;16889;67.864;24.990;2023-03-14T12:15:03;-4.60;99.90
30063;DHT22;16889;67.864;24.990;2023-03-14T12:20:22;-4.40;99.90
30063;DHT22;16889;67.864;24.990;2023-03-14T12:25:19;-4.30;99.90
30063;DHT22;16889;67.864;24.990;2023-03-14T12:45:41;-4.50;99.90
30063;DHT22;16889;67.864;24.990;2023-03-14T12:51:00;-4.40;99.90
30063;DHT22;16889;67.864;24.990;2023-03-14T13:00:51;-4.50;99.90
30063;DHT22;16889;67.864;24.990;2023-03-14T13:05:53;-4.50;99.90
30063;DHT22;16889;67.864;24.990;2023-03-14T13:10:42;-4.50;99.90
30063;DHT22;16889;67.864;24.990;2023-03-14T13:20:32;-4.60;99.90
30063;DHT22;16889;67.864;24.990;2023-03-14T13:25:20;-4.60;99.90
30063;DHT22;16889;67.864;24.990;2023-03-14T13:30:35;-4.70;99.90
30063;DHT22;16889;67.864;24.990;2023-03-14T13:35:29;-4.60;99.90
30063;DHT22;16889;67.864;24.990;2023-03-14T13:45:16;-4.60;99.90
30063;DHT22;16889;67.864;24.990;2023-03-14T13:50:02;-4.70;99.90
30063;DHT22;16889;67.864;24.990;2023-03-14T13:54:53;-4.60;99.90
30063;DHT22;16889;67.864;24.990;2023-03-14T13:59:40;-4.70;99.90
30063;DHT22;16889;67.864;24.990;2023-03-14T14:04:26;-4.90;99.90
30063;DHT22;16889;67.864;24.990;2023-03-14T14:09:21;-4.90;99.90
30063;DHT22;16889;67.864;24.990;2023-03-14T14:14:16;-4.90;99.90
30063;DHT22;16889;67.864;24.990;2023-03-14T14:19:05;-5.00;99.90
30063;DHT22;16889;67.864;24.990;2023-03-14T14:23:52;-4.90;99.90
30063;DHT22;16889;67.864;24.990;2023-03-14T14:28:38;-4.90;99.90
30063;DHT22;16889;67.864;24.990;2023-03-14T14:33:26;-5.00;99.90
30063;DHT22;16889;67.864;24.990;2023-03-14T14:38:19;-5.10;99.90
30063;DHT22;16889;67.864;24.990;2023-03-14T14:43:07;-5.10;99.90
30063;DHT22;16889;67.864;24.990;2023-03-14T14:47:55;-5.20;99.90
30063;DHT22;16889;67.864;24.990;2023-03-14T14:52:44;-5.20;99.90
30063;DHT22;16889;67.864;24.990;2023-03-14T14:57:38;-5.20;99.90
30063;DHT22;16889;67.864;24.990;2023-03-14T15:07:30;-5.20;99.90
30063;DHT22;16889;67.864;24.990;2023-03-14T15:12:19;-5.20;99.90
30063;DHT22;16889;67.864;24.990;2023-03-14T15:17:10;-5.20;99.90
30063;DHT22;16889;67.864;24.990;2023-03-14T15:21:59;-5.30;99.90
30063;DHT22;16889;67.864;24.990;2023-03-14T15:26:51;-5.40;99.90
30063;DHT22;16889;67.864;24.990;2023-03-14T15:31:40;-5.50;99.90
30063;DHT22;16889;67.864;24.990;2023-03-14T15:36:28;-5.50;99.90
30063;DHT22;16889;67.864;24.990;2023-03-14T15:41:17;-5.60;99.90
30063;DHT22;16889;67.864;24.990;2023-03-14T15:46:03;-5.60;99.90
30063;DHT22;16889;67.864;24.990;2023-03-14T15:50:51;-5.60;99.90
30063;DHT22;16889;67.864;24.990;2023-03-14T15:55:38;-5.70;99.90
30063;DHT22;16889;67.864;24.990;2023-03-14T16:00:24;-5.70;99.90
30063;DHT22;16889;67.864;24.990;2023-03-14T16:05:12;-5.70;99.90
30063;DHT22;16889;67.864;24.990;2023-03-14T16:09:58;-5.70;99.90
30063;DHT22;16889;67.864;24.990;2023-03-14T16:14:47;-5.70;99.90
30063;DHT22;16889;67.864;24.990;2023-03-14T16:19:34;-5.70;99.90
30063;DHT22;16889;67.864;24.990;2023-03-14T16:24:20;-5.70;99.90
30063;DHT22;16889;67.864;24.990;2023-03-14T16:29:06;-5.70;99.90
30063;DHT22;16889;67.864;24.990;2023-03-14T16:33:52;-5.80;99.90
30063;DHT22;16889;67.864;24.990;2023-03-14T16:38:40;-5.80;99.90
30063;DHT22;16889;67.864;24.990;2023-03-14T16:43:27;-5.70;99.90
30063;DHT22;16889;67.864;24.990;2023-03-14T16:48:14;-5.80;99.90
30063;DHT22;16889;67.864;24.990;2023-03-14T16:53:00;-5.70;99.90
30063;DHT22;16889;67.864;24.990;2023-03-14T16:57:46;-5.80;99.90
30063;DHT22;16889;67.864;24.990;2023-03-14T17:02:32;-5.80;99.90
30063;DHT22;16889;67.864;24.990;2023-03-14T17:07:18;-5.80;99.90
30063;DHT22;16889;67.864;24.990;2023-03-14T17:12:06;-5.80;99.90
30063;DHT22;16889;67.864;24.990;2023-03-14T17:16:52;-5.90;99.90
30063;DHT22;16889;67.864;24.990;2023-03-14T17:21:38;-5.90;99.90
30063;DHT22;16889;67.864;24.990;2023-03-14T17:26:25;-5.90;99.90
30063;DHT22;16889;67.864;24.990;2023-03-14T17:31:18;-5.90;99.90
30063;DHT22;16889;67.864;24.990;2023-03-14T17:36:05;-5.90;99.90
30063;DHT22;16889;67.864;24.990;2023-03-14T17:40:52;-5.90;99.90
30063;DHT22;16889;67.864;24.990;2023-03-14T17:45:38;-5.90;99.90
30063;DHT22;16889;67.864;24.990;2023-03-14T17:50:52;-5.90;99.90
30063;DHT22;16889;67.864;24.990;2023-03-14T17:55:38;-5.90;99.90
30063;DHT22;16889;67.864;24.990;2023-03-14T18:00:24;-5.90;99.90
30063;DHT22;16889;67.864;24.990;2023-03-14T18:05:10;-5.90;99.90
30063;DHT22;16889;67.864;24.990;2023-03-14T18:09:59;-5.90;99.90
30063;DHT22;16889;67.864;24.990;2023-03-14T18:14:45;-6.00;99.90
30063;DHT22;16889;67.864;24.990;2023-03-14T18:19:31;-6.00;99.90
30063;DHT22;16889;67.864;24.990;2023-03-14T18:24:18;-6.00;99.90
30063;DHT22;16889;67.864;24.990;2023-03-14T18:29:06;-6.00;99.90
30063;DHT22;16889;67.864;24.990;2023-03-14T18:33:54;-6.00;99.90
30063;DHT22;16889;67.864;24.990;2023-03-14T18:38:42;-6.00;99.90
30063;DHT22;16889;67.864;24.990;2023-03-14T18:43:33;-6.10;99.90
30063;DHT22;16889;67.864;24.990;2023-03-14T18:48:19;-6.10;99.90
30063;DHT22;16889;67.864;24.990;2023-03-14T18:53:05;-6.10;99.90
30063;DHT22;16889;67.864;24.990;2023-03-14T18:57:51;-6.10;99.90
30063;DHT22;16889;67.864;24.990;2023-03-14T19:02:37;-6.10;99.90
30063;DHT22;16889;67.864;24.990;2023-03-14T19:07:24;-6.10;99.90
30063;DHT22;16889;67.864;24.990;2023-03-14T19:12:10;-6.10;99.90
30063;DHT22;16889;67.864;24.990;2023-03-14T19:16:56;-6.10;99.90
30063;DHT22;16889;67.864;24.990;2023-03-14T19:21:42;-6.20;99.90
30063;DHT22;16889;67.864;24.990;2023-03-14T19:26:29;-6.20;99.90
30063;DHT22;16889;67.864;24.990;2023-03-14T19:31:17;-6.20;99.90
30063;DHT22;16889;67.864;24.990;2023-03-14T19:36:04;-6.30;99.90
30063;DHT22;16889;67.864;24.990;2023-03-14T19:40:55;-6.30;99.90
30063;DHT22;16889;67.864;24.990;2023-03-14T19:45:42;-6.40;99.90
30063;DHT22;16889;67.864;24.990;2023-03-14T19:50:29;-6.30;99.90
30063;DHT22;16889;67.864;24.990;2023-03-14T19:55:15;-6.40;99.90
30063;DHT22;16889;67.864;24.990;2023-03-14T20:00:01;-6.30;99.90
30063;DHT22;16889;67.864;24.990;2023-03-14T20:04:49;-6.40;99.90
30063;DHT22;16889;67.864;24.990;2023-03-14T20:09:39;-6.50;99.90
30063;DHT22;16889;67.864;24.990;2023-03-14T20:14:25;-6.40;99.90
30063;DHT22;16889;67.864;24.990;2023-03-14T20:19:12;-6.50;99.90
30063;DHT22;16889;67.864;24.990;2023-03-14T20:24:00;-6.50;99.90
30063;DHT22;16889;67.864;24.990;2023-03-14T20:28:47;-6.50;99.90
30063;DHT22;16889;67.864;24.990;2023-03-14T20:33:33;-6.50;99.90
30063;DHT22;16889;67.864;24.990;2023-03-14T20:38:19;-6.60;99.90
30063;DHT22;16889;67.864;24.990;2023-03-14T20:43:06;-6.60;99.90
30063;DHT22;16889;67.864;24.990;2023-03-14T20:47:53;-6.60;99.90
30063;DHT22;16889;67.864;24.990;2023-03-14T20:52:39;-6.60;99.90
30063;DHT22;16889;67.864;24.990;2023-03-14T20:57:26;-6.60;99.90
30063;DHT22;16889;67.864;24.990;2023-03-14T21:02:16;-6.60;99.90
30063;DHT22;16889;67.864;24.990;2023-03-14T21:07:02;-6.60;99.90
30063;DHT22;16889;67.864;24.990;2023-03-14T21:11:48;-6.50;99.90
30063;DHT22;16889;67.864;24.990;2023-03-14T21:16:34;-6.60;99.90
30063;DHT22;16889;67.864;24.990;2023-03-14T21:21:21;-6.50;99.90
30063;DHT22;16889;67.864;24.990;2023-03-14T21:26:09;-6.50;99.90
30063;DHT22;16889;67.864;24.990;2023-03-14T21:31:02;-6.50;99.90
30063;DHT22;16889;67.864;24.990;2023-03-14T21:35:51;-6.50;99.90
30063;DHT22;16889;67.864;24.990;2023-03-14T21:40:38;-6.50;99.90
30063;DHT22;16889;67.864;24.990;2023-03-14T21:45:25;-6.50;99.90
30063;DHT22;16889;67.864;24.990;2023-03-14T21:50:13;-6.50;99.90
30063;DHT22;16889;67.864;24.990;2023-03-14T21:55:01;-6.50;99.90
30063;DHT22;16889;67.864;24.990;2023-03-14T21:59:50;-6.50;99.90
30063;DHT22;16889;67.864;24.990;2023-03-14T22:04:37;-6.50;99.90
30063;DHT22;16889;67.864;24.990;2023-03-14T22:09:23;-6.50;99.90
30063;DHT22;16889;67.864;24.990;2023-03-14T22:14:10;-6.60;99.90
30063;DHT22;16889;67.864;24.990;2023-03-14T22:18:59;-6.50;99.90
30063;DHT22;16889;67.864;24.990;2023-03-14T22:23:45;-6.50;99.90
30063;DHT22;16889;67.864;24.990;2023-03-14T22:28:31;-6.60;99.90
30063;DHT22;16889;67.864;24.990;2023-03-14T22:33:18;-6.60;99.90
30063;DHT22;16889;67.864;24.990;2023-03-14T22:38:05;-6.50;99.90
30063;DHT22;16889;67.864;24.990;2023-03-14T22:42:52;-6.60;99.90
30063;DHT22;16889;67.864;24.990;2023-03-14T22:47:38;-6.50;99.90
30063;DHT22;16889;67.864;24.990;2023-03-14T22:52:29;-6.50;99.90
30063;DHT22;16889;67.864;24.990;2023-03-14T22:57:18;-6.50;99.90
30063;DHT22;16889;67.864;24.990;2023-03-14T23:02:04;-6.50;99.90
30063;DHT22;16889;67.864;24.990;2023-03-14T23:06:50;-6.50;99.90
30063;DHT22;16889;67.864;24.990;2023-03-14T23:11:37;-6.50;99.90
30063;DHT22;16889;67.864;24.990;2023-03-14T23:16:30;-6.40;99.90
30063;DHT22;16889;67.864;24.990;2023-03-14T23:21:21;-6.40;99.90
30063;DHT22;16889;67.864;24.990;2023-03-14T23:26:10;-6.40;99.90
30063;DHT22;16889;67.864;24.990;2023-03-14T23:30:57;-6.40;99.90
30063;DHT22;16889;67.864;24.990;2023-03-14T23:35:45;-6.40;99.90
30063;DHT22;16889;67.864;24.990;2023-03-14T23:40:31;-6.30;99.90
30063;DHT22;16889;67.864;24.990;2023-03-14T23:45:17;-6.30;99.90
30063;DHT22;16889;67.864;24.990;2023-03-14T23:50:03;-6.30;99.90
30063;DHT22;16889;67.864;24.990;2023-03-14T23:54:50;-6.30;99.90
30063;DHT22;16889;67.864;24.990;2023-03-14T23:59:37;-6.30;99.90
